Time;durP1;ratioP1;P1;durP2;ratioP2;P2;SDS_P1;SDS_P2;PMS_P1;PMS_P2;Temp;Humidity;BMP_temperature;BMP_pressure;BME280_temperature;BME280_humidity;BME280_pressure;Samples;Min_cycle;Max_cycle;Signal;HPM_P1;HPM_P2
2023/11/20 00:01:04;;;;;;;0.08;0.08;;;23.20;48.70;;;;;;5051786;28;20725;-51
2023/11/20 00:03:35;;;;;;;0.00;0.00;;;23.20;48.70;;;;;;5047028;28;20191;-55
2023/11/20 00:06:05;;;;;;;0.00;0.00;;;23.20;48.70;;;;;;5032318;28;20218;-52
2023/11/20 00:08:36;;;;;;;0.00;0.00;;;23.30;48.60;;;;;;5031337;28;20212;-52
2023/11/20 00:11:07;;;;;;;0.00;0.00;;;23.20;48.50;;;;;;5031827;28;20656;-52
2023/11/20 00:13:37;;;;;;;0.05;0.05;;;23.30;48.50;;;;;;5031884;28;20250;-52
2023/11/20 00:16:12;;;;;;;0.00;0.00;;;23.30;48.50;;;;;;5031947;28;20199;-56
2023/11/20 00:18:42;;;;;;;0.00;0.00;;;23.30;48.40;;;;;;5031858;28;20216;-54
2023/11/20 00:21:14;;;;;;;0.00;0.00;;;23.30;48.40;;;;;;5031749;28;20648;-57
2023/11/20 00:23:45;;;;;;;0.00;0.00;;;23.30;48.40;;;;;;5031671;28;20672;-57
2023/11/20 00:26:16;;;;;;;0.00;0.00;;;23.30;48.30;;;;;;5032310;28;20672;-56
2023/11/20 00:28:47;;;;;;;0.00;0.00;;;23.40;48.30;;;;;;5031477;28;20227;-56
2023/11/20 00:31:19;;;;;;;0.00;0.00;;;23.40;48.20;;;;;;5031757;28;20192;-56
2023/11/20 00:33:50;;;;;;;0.00;0.00;;;23.40;48.20;;;;;;5031247;28;20722;-57
2023/11/20 00:36:20;;;;;;;0.08;0.08;;;23.40;48.30;;;;;;5031021;28;20202;-56
2023/11/20 00:38:51;;;;;;;0.00;0.00;;;23.40;48.20;;;;;;5030851;28;20212;-54
2023/11/20 00:41:22;;;;;;;0.00;0.00;;;23.40;48.20;;;;;;5030834;28;20258;-56
2023/11/20 00:43:52;;;;;;;0.00;0.00;;;23.40;48.20;;;;;;5031178;28;20200;-52
2023/11/20 00:46:25;;;;;;;0.10;0.10;;;23.50;48.20;;;;;;5031340;28;20204;-57
2023/11/20 00:48:55;;;;;;;0.00;0.00;;;23.50;48.20;;;;;;5031368;28;20224;-54
2023/11/20 00:51:26;;;;;;;0.00;0.00;;;23.50;48.10;;;;;;5031192;28;20196;-55
2023/11/20 00:53:57;;;;;;;0.00;0.00;;;23.50;48.10;;;;;;5031137;28;20238;-57
2023/11/20 00:56:28;;;;;;;0.00;0.00;;;23.50;48.10;;;;;;5031398;28;20262;-56
2023/11/20 00:58:59;;;;;;;0.03;0.03;;;23.50;48.00;;;;;;5031093;28;20731;-57
2023/11/20 01:01:31;;;;;;;0.00;0.00;;;23.60;48.00;;;;;;5046246;28;20659;-58
2023/11/20 01:04:03;;;;;;;0.00;0.00;;;23.60;47.90;;;;;;5051107;28;20661;-57
2023/11/20 01:06:38;;;;;;;0.00;0.00;;;23.60;47.90;;;;;;5051009;28;20536;-55
2023/11/20 01:09:09;;;;;;;0.00;0.00;;;23.60;47.80;;;;;;5047551;28;20284;-56
2023/11/20 01:11:44;;;;;;;0.00;0.00;;;23.70;47.80;;;;;;5041035;28;20203;-57
2023/11/20 01:14:14;;;;;;;0.00;0.00;;;23.70;47.70;;;;;;5031032;28;20226;-54
2023/11/20 01:16:47;;;;;;;0.00;0.00;;;23.70;47.70;;;;;;5043237;28;20199;-56
2023/11/20 01:19:17;;;;;;;0.00;0.00;;;23.70;47.60;;;;;;5051306;28;20219;-56
2023/11/20 01:21:48;;;;;;;0.00;0.00;;;23.70;47.70;;;;;;5051011;28;20666;-55
2023/11/20 01:24:19;;;;;;;0.00;0.00;;;23.70;47.70;;;;;;5055213;28;20249;-56
2023/11/20 01:26:49;;;;;;;0.00;0.00;;;23.70;47.70;;;;;;5054550;28;20624;-53
2023/11/20 01:29:20;;;;;;;0.00;0.00;;;23.70;47.70;;;;;;5054291;28;20710;-55
2023/11/20 01:31:52;;;;;;;0.00;0.00;;;23.70;47.60;;;;;;5054364;28;20195;-55
2023/11/20 01:34:23;;;;;;;0.00;0.00;;;23.70;47.60;;;;;;5054038;28;20265;-56
2023/11/20 01:36:56;;;;;;;0.00;0.00;;;23.80;47.60;;;;;;5054367;28;20203;-53
2023/11/20 01:39:27;;;;;;;0.00;0.00;;;23.80;47.50;;;;;;5054223;28;20223;-55
2023/11/20 01:41:57;;;;;;;0.00;0.00;;;23.80;47.50;;;;;;5041817;28;20204;-55
2023/11/20 01:44:31;;;;;;;0.00;0.00;;;23.80;47.50;;;;;;5034157;28;20258;-58
2023/11/20 01:47:04;;;;;;;0.00;0.00;;;23.80;47.40;;;;;;5034400;28;20200;-57
2023/11/20 01:49:35;;;;;;;0.00;0.00;;;23.80;47.30;;;;;;5034283;28;20696;-57
2023/11/20 01:52:06;;;;;;;0.00;0.00;;;23.90;47.20;;;;;;5034072;28;20611;-54
2023/11/20 01:54:37;;;;;;;0.00;0.00;;;23.90;47.10;;;;;;5049024;28;20245;-55
2023/11/20 01:57:10;;;;;;;0.00;0.00;;;23.90;47.10;;;;;;5053824;28;20269;-53
2023/11/20 01:59:41;;;;;;;0.00;0.00;;;23.90;47.00;;;;;;5054589;28;20195;-57
2023/11/20 02:02:14;;;;;;;0.00;0.00;;;23.90;47.10;;;;;;5039180;28;20200;-55
2023/11/20 02:04:45;;;;;;;0.00;0.00;;;23.90;47.10;;;;;;5034295;28;20604;-56
2023/11/20 02:07:16;;;;;;;0.00;0.00;;;23.90;46.90;;;;;;5033764;28;20234;-57
2023/11/20 02:09:47;;;;;;;0.03;0.03;;;24.00;47.00;;;;;;5033967;28;20220;-51
2023/11/20 02:12:17;;;;;;;0.00;0.00;;;23.90;47.00;;;;;;5036723;28;20196;-50
2023/11/20 02:14:48;;;;;;;0.00;0.00;;;23.90;47.00;;;;;;5034088;28;20822;-57
2023/11/20 02:17:20;;;;;;;0.00;0.00;;;23.90;46.90;;;;;;5033969;28;20200;-55
2023/11/20 02:19:52;;;;;;;0.00;0.00;;;24.00;46.90;;;;;;5033704;28;20204;-55
2023/11/20 02:22:22;;;;;;;0.00;0.00;;;24.00;46.70;;;;;;5033470;28;20207;-55
2023/11/20 02:24:54;;;;;;;0.00;0.00;;;24.00;46.70;;;;;;5033957;28;20212;-50
2023/11/20 02:27:39;;;;;;;0.08;0.08;;;24.00;46.60;;;;;;5033432;28;20216;-53
2023/11/20 02:30:12;;;;;;;0.00;0.00;;;24.00;46.40;;;;;;5033397;28;20224;-55
2023/11/20 02:32:43;;;;;;;0.00;0.00;;;24.00;47.00;;;;;;5033370;28;20258;-55
2023/11/20 02:35:19;;;;;;;0.00;0.00;;;24.00;46.50;;;;;;5032547;28;20290;-51
2023/11/20 02:37:49;;;;;;;0.00;0.00;;;24.00;46.40;;;;;;5033467;28;20579;-58
2023/11/20 02:40:20;;;;;;;0.00;0.00;;;24.10;46.40;;;;;;5033455;28;20246;-55
2023/11/20 02:42:50;;;;;;;0.00;0.00;;;24.10;46.30;;;;;;5033214;28;20282;-54
2023/11/20 02:45:23;;;;;;;0.00;0.00;;;24.10;46.20;;;;;;5032959;28;20199;-56
2023/11/20 02:47:54;;;;;;;0.00;0.00;;;24.10;46.30;;;;;;5033141;28;20228;-56
2023/11/20 02:50:24;;;;;;;0.00;0.00;;;24.10;46.20;;;;;;5033007;28;20231;-56
2023/11/20 02:52:55;;;;;;;0.00;0.00;;;24.10;46.20;;;;;;5033138;28;20223;-55
2023/11/20 02:55:30;;;;;;;0.00;0.00;;;24.10;46.10;;;;;;5033433;28;20200;-51
2023/11/20 02:58:00;;;;;;;0.00;0.00;;;24.10;46.20;;;;;;5033188;28;20212;-58
2023/11/20 03:00:33;;;;;;;0.00;0.00;;;24.10;46.20;;;;;;5033192;28;20200;-54
2023/11/20 03:03:06;;;;;;;0.00;0.00;;;24.20;46.20;;;;;;5032991;28;20643;-57
2023/11/20 03:05:36;;;;;;;0.00;0.00;;;24.20;46.20;;;;;;5034905;28;20263;-57
2023/11/20 03:08:07;;;;;;;0.08;0.08;;;24.20;46.20;;;;;;5042488;28;20216;-57
2023/11/20 03:10:38;;;;;;;0.00;0.00;;;24.20;46.20;;;;;;5051577;28;20223;-48
2023/11/20 03:13:10;;;;;;;0.00;0.00;;;24.20;46.10;;;;;;5032718;28;20200;-49
2023/11/20 03:15:42;;;;;;;0.00;0.00;;;24.20;46.10;;;;;;5032969;28;20208;-57
2023/11/20 03:18:13;;;;;;;0.00;0.00;;;24.30;46.10;;;;;;5032586;28;20220;-55
2023/11/20 03:20:43;;;;;;;0.00;0.00;;;24.30;45.90;;;;;;5032766;28;20315;-50
2023/11/20 03:23:14;;;;;;;0.00;0.00;;;24.30;45.80;;;;;;5032573;28;20218;-55
2023/11/20 03:25:45;;;;;;;0.08;0.08;;;24.30;45.70;;;;;;5033072;28;20296;-51
2023/11/20 03:28:16;;;;;;;0.00;0.00;;;24.30;45.60;;;;;;5032551;28;20216;-51
2023/11/20 03:30:48;;;;;;;0.00;0.00;;;24.30;45.40;;;;;;5032764;28;20375;-51
2023/11/20 03:33:19;;;;;;;0.00;0.00;;;24.30;45.40;;;;;;5032501;28;20249;-50
2023/11/20 03:35:49;;;;;;;0.10;0.10;;;24.30;45.40;;;;;;5032578;28;20201;-57
2023/11/20 03:38:20;;;;;;;0.00;0.00;;;24.40;45.30;;;;;;5032327;28;20224;-53
2023/11/20 03:40:51;;;;;;;0.00;0.00;;;24.40;45.20;;;;;;5032508;28;20258;-54
2023/11/20 03:43:23;;;;;;;0.00;0.00;;;24.40;45.20;;;;;;5032105;28;20375;-52
2023/11/20 03:45:55;;;;;;;0.00;0.00;;;24.40;45.20;;;;;;5031457;28;20192;-53
2023/11/20 03:48:26;;;;;;;0.00;0.00;;;24.40;45.10;;;;;;5031757;28;20224;-53
2023/11/20 03:50:56;;;;;;;0.00;0.00;;;24.40;45.20;;;;;;5031979;28;20281;-56
2023/11/20 03:53:29;;;;;;;0.00;0.00;;;24.50;45.30;;;;;;5048161;28;20249;-46
2023/11/20 03:56:00;;;;;;;0.00;0.00;;;24.50;45.30;;;;;;5051884;28;20276;-51
2023/11/20 03:58:31;;;;;;;0.00;0.00;;;24.50;45.30;;;;;;5052131;28;20290;-57
2023/11/20 04:01:04;;;;;;;0.00;0.00;;;24.50;45.30;;;;;;5051983;28;20258;-54
2023/11/20 04:03:35;;;;;;;0.00;0.00;;;24.50;45.20;;;;;;5051493;28;20195;-53
2023/11/20 04:06:06;;;;;;;0.00;0.00;;;24.60;45.20;;;;;;5031716;28;20195;-43
2023/11/20 04:08:37;;;;;;;0.00;0.00;;;24.60;45.30;;;;;;5031632;28;20301;-46
2023/11/20 04:11:07;;;;;;;0.00;0.00;;;24.60;45.20;;;;;;5031753;28;20740;-44
2023/11/20 04:13:38;;;;;;;0.00;0.00;;;24.70;45.20;;;;;;5032034;28;20196;-43
2023/11/20 04:16:11;;;;;;;0.00;0.00;;;24.60;45.20;;;;;;5032301;28;20200;-44
2023/11/20 04:18:41;;;;;;;0.00;0.00;;;24.60;45.20;;;;;;5033851;28;20322;-51
2023/11/20 04:21:12;;;;;;;0.00;0.00;;;24.70;45.00;;;;;;5031500;28;20200;-50
2023/11/20 04:23:43;;;;;;;0.00;0.00;;;24.70;45.00;;;;;;5031789;28;20262;-48
2023/11/20 04:26:13;;;;;;;0.00;0.00;;;24.70;44.90;;;;;;5032344;28;20204;-55
2023/11/20 04:28:44;;;;;;;0.10;0.10;;;24.70;44.80;;;;;;5032133;28;20216;-51
2023/11/20 04:31:16;;;;;;;0.00;0.00;;;24.70;44.90;;;;;;5031409;28;20223;-51
2023/11/20 04:33:47;;;;;;;0.00;0.00;;;24.70;44.90;;;;;;5031383;28;20196;-51
2023/11/20 04:36:19;;;;;;;0.00;0.00;;;24.70;44.90;;;;;;5031469;28;20200;-55
2023/11/20 04:38:50;;;;;;;0.00;0.00;;;24.70;44.80;;;;;;5031460;28;20212;-51
2023/11/20 04:41:20;;;;;;;0.00;0.00;;;24.70;44.90;;;;;;5031533;28;20204;-53
2023/11/20 04:43:51;;;;;;;0.00;0.00;;;24.70;44.90;;;;;;5031339;28;20206;-56
2023/11/20 04:46:23;;;;;;;0.00;0.00;;;24.80;44.90;;;;;;5031359;28;20714;-56
2023/11/20 04:48:54;;;;;;;0.00;0.00;;;24.80;44.80;;;;;;5031428;28;20220;-58
2023/11/20 04:51:25;;;;;;;0.00;0.00;;;24.80;45.30;;;;;;5031454;28;20256;-57
2023/11/20 04:53:55;;;;;;;0.08;0.08;;;24.80;44.60;;;;;;5031106;28;20670;-57
2023/11/20 04:56:26;;;;;;;0.00;0.00;;;24.80;44.70;;;;;;5031468;28;20652;-56
2023/11/20 04:59:00;;;;;;;0.00;0.00;;;24.80;44.70;;;;;;5034947;28;20238;-57
2023/11/20 05:01:35;;;;;;;0.00;0.00;;;24.80;44.50;;;;;;5042920;28;20199;-54
2023/11/20 05:04:05;;;;;;;0.00;0.00;;;24.80;44.30;;;;;;5055134;28;20190;-57
2023/11/20 05:06:36;;;;;;;0.00;0.00;;;24.80;44.20;;;;;;5051715;28;20647;-56
2023/11/20 05:09:07;;;;;;;0.00;0.00;;;24.90;44.20;;;;;;5054883;28;20218;-53
2023/11/20 05:11:38;;;;;;;0.00;0.00;;;24.80;44.00;;;;;;5045129;28;20228;-57
2023/11/20 05:14:09;;;;;;;0.00;0.00;;;24.80;43.90;;;;;;5035218;28;20609;-58
2023/11/20 05:16:41;;;;;;;0.00;0.00;;;24.80;43.80;;;;;;5041325;28;20202;-56
2023/11/20 05:19:12;;;;;;;0.00;0.00;;;24.80;43.70;;;;;;5054838;28;20233;-57
2023/11/20 05:21:44;;;;;;;0.00;0.00;;;24.80;43.70;;;;;;5054781;28;20192;-57
2023/11/20 05:24:15;;;;;;;0.00;0.00;;;24.80;43.70;;;;;;5054661;28;20192;-56
2023/11/20 05:26:46;;;;;;;0.00;0.00;;;24.80;43.70;;;;;;5067330;22;20223;-51
2023/11/20 05:29:16;;;;;;;0.00;0.00;;;24.80;43.70;;;;;;5054866;28;20289;-50
2023/11/20 05:31:49;;;;;;;0.00;0.00;;;24.80;43.70;;;;;;5054830;28;20227;-55
2023/11/20 05:34:20;;;;;;;0.00;0.00;;;24.80;43.70;;;;;;5054599;28;20199;-52
2023/11/20 05:36:50;;;;;;;0.00;0.00;;;24.80;43.70;;;;;;5054649;28;20670;-50
2023/11/20 05:39:21;;;;;;;0.00;0.00;;;24.80;43.80;;;;;;5054710;28;20218;-52
2023/11/20 05:41:52;;;;;;;0.00;0.00;;;24.80;43.70;;;;;;5042694;28;20211;-51
2023/11/20 05:44:22;;;;;;;0.05;0.05;;;24.80;43.60;;;;;;5034391;28;20188;-51
2023/11/20 05:46:55;;;;;;;0.00;0.00;;;24.80;43.60;;;;;;5034681;28;20203;-53
2023/11/20 05:49:25;;;;;;;0.00;0.00;;;24.80;43.40;;;;;;5034601;28;20227;-53
2023/11/20 05:51:56;;;;;;;0.00;0.00;;;24.80;43.40;;;;;;5034381;28;20688;-53
2023/11/20 05:54:27;;;;;;;0.00;0.00;;;24.80;43.30;;;;;;5034448;28;20196;-54
2023/11/20 05:56:57;;;;;;;0.00;0.00;;;24.80;43.40;;;;;;5034706;28;20648;-53
2023/11/20 05:59:28;;;;;;;0.00;0.00;;;24.80;43.30;;;;;;5045837;28;20207;-48
2023/11/20 06:02:00;;;;;;;0.00;0.00;;;24.80;43.40;;;;;;5054251;28;20203;-49
2023/11/20 06:04:31;;;;;;;0.00;0.00;;;24.80;43.30;;;;;;5053811;28;20195;-49
2023/11/20 06:07:02;;;;;;;0.00;0.00;;;24.80;43.30;;;;;;5053622;28;20191;-50
2023/11/20 06:09:33;;;;;;;0.00;0.00;;;24.80;43.30;;;;;;5054068;28;20286;-48
2023/11/20 06:12:03;;;;;;;0.00;0.00;;;24.80;43.30;;;;;;5054204;28;20223;-51
2023/11/20 06:14:34;;;;;;;0.00;0.00;;;24.80;43.30;;;;;;5054051;28;20663;-54
2023/11/20 06:17:06;;;;;;;0.00;0.00;;;24.80;43.40;;;;;;5053825;28;20211;-53
2023/11/20 06:19:37;;;;;;;0.00;0.00;;;24.80;43.40;;;;;;5053903;28;20199;-55
2023/11/20 06:22:08;;;;;;;0.00;0.00;;;24.80;43.40;;;;;;5053819;28;20192;-56
2023/11/20 06:27:08;;;;;;;0.00;0.00;;;24.80;43.50;;;;;;5031811;28;20269;-57
2023/11/20 06:29:39;;;;;;;0.00;0.00;;;24.80;43.60;;;;;;5030302;28;20192;-56
2023/11/20 06:32:11;;;;;;;0.00;0.00;;;24.80;43.50;;;;;;5032582;28;20232;-56
2023/11/20 06:34:42;;;;;;;0.00;0.00;;;24.80;43.40;;;;;;5033428;28;20599;-56
2023/11/20 06:37:13;;;;;;;0.00;0.00;;;24.80;43.30;;;;;;5033399;28;20200;-54
2023/11/20 06:39:43;;;;;;;0.00;0.00;;;24.80;43.20;;;;;;5033221;28;20648;-56
2023/11/20 06:42:14;;;;;;;0.00;0.00;;;24.80;43.10;;;;;;5048114;28;20199;-52
2023/11/20 06:44:45;;;;;;;0.00;0.00;;;24.80;43.10;;;;;;5053526;28;20282;-56
2023/11/20 06:47:17;;;;;;;0.00;0.00;;;24.80;43.10;;;;;;5053019;28;20199;-56
2023/11/20 06:49:48;;;;;;;0.10;0.10;;;24.80;43.10;;;;;;5052604;28;20196;-52
2023/11/20 06:52:20;;;;;;;0.00;0.00;;;24.80;43.10;;;;;;5053267;28;20321;-56
2023/11/20 06:54:51;;;;;;;0.10;0.10;;;24.70;43.00;;;;;;5053112;28;20245;-57
2023/11/20 06:57:22;;;;;;;0.00;0.00;;;24.70;43.10;;;;;;5053007;28;20203;-57
2023/11/20 06:59:52;;;;;;;0.00;0.00;;;24.70;43.10;;;;;;5050125;28;20195;-57
2023/11/20 07:02:25;;;;;;;0.00;0.00;;;24.70;43.20;;;;;;5032610;28;20604;-57
2023/11/20 07:04:58;;;;;;;0.00;0.00;;;24.70;43.10;;;;;;5032326;28;20214;-57
2023/11/20 07:07:29;;;;;;;0.08;0.08;;;24.70;43.20;;;;;;5032407;28;20259;-57
2023/11/20 07:09:59;;;;;;;0.00;0.00;;;24.70;43.10;;;;;;5031383;28;20587;-52
2023/11/20 07:12:30;;;;;;;0.00;0.00;;;24.70;43.20;;;;;;5049310;28;20596;-56
2023/11/20 07:15:01;;;;;;;0.00;0.00;;;24.70;43.20;;;;;;5052412;28;20199;-53
2023/11/20 07:17:33;;;;;;;0.00;0.00;;;24.70;43.30;;;;;;5052228;28;20219;-56
2023/11/20 07:20:04;;;;;;;0.10;0.10;;;24.70;43.30;;;;;;5051281;28;20198;-56
2023/11/20 07:22:35;;;;;;;0.00;0.00;;;24.70;43.30;;;;;;5052193;28;20235;-58
2023/11/20 07:25:06;;;;;;;0.00;0.00;;;24.60;43.20;;;;;;5052752;28;20200;-52
2023/11/20 07:27:37;;;;;;;0.00;0.00;;;24.60;43.20;;;;;;5052215;28;20251;-57
2023/11/20 07:30:10;;;;;;;0.00;0.00;;;24.60;43.20;;;;;;5052228;28;20231;-54
2023/11/20 07:32:42;;;;;;;0.00;0.00;;;24.60;43.20;;;;;;5052376;28;20262;-53
2023/11/20 07:35:13;;;;;;;0.00;0.00;;;24.60;43.30;;;;;;5052039;28;20199;-57
2023/11/20 07:37:44;;;;;;;0.00;0.00;;;24.50;43.20;;;;;;5052442;28;20215;-50
2023/11/20 07:40:15;;;;;;;0.00;0.00;;;24.50;43.20;;;;;;5052294;28;20203;-57
2023/11/20 07:42:46;;;;;;;0.00;0.00;;;24.50;43.90;;;;;;5052136;28;20202;-56
2023/11/20 07:45:17;;;;;;;0.00;0.00;;;24.50;43.20;;;;;;5052267;28;20195;-50
2023/11/20 07:47:50;;;;;;;0.00;0.00;;;24.50;43.30;;;;;;5051920;28;20221;-48
2023/11/20 07:50:20;;;;;;;0.00;0.00;;;24.40;43.30;;;;;;5050960;28;20204;-53
2023/11/20 07:52:51;;;;;;;0.03;0.03;;;24.40;43.30;;;;;;5051747;28;20226;-56
2023/11/20 07:55:21;;;;;;;0.00;0.00;;;24.40;43.30;;;;;;5051788;28;20192;-57
2023/11/20 07:57:52;;;;;;;0.00;0.00;;;24.40;43.30;;;;;;5049171;28;20691;-50
2023/11/20 08:00:23;;;;;;;0.00;0.00;;;24.40;42.80;;;;;;5031915;28;20200;-47
2023/11/20 08:02:56;;;;;;;0.00;0.00;;;24.30;40.50;;;;;;5031939;28;20192;-46
2023/11/20 08:05:27;;;;;;;0.08;0.08;;;24.20;39.10;;;;;;5031009;28;20274;-53
2023/11/20 08:07:57;;;;;;;0.00;0.00;;;24.00;38.90;;;;;;5031201;28;20701;-49
2023/11/20 08:10:28;;;;;;;0.00;0.00;;;23.80;39.30;;;;;;5031804;28;20200;-55
2023/11/20 08:12:59;;;;;;;0.00;0.00;;;23.60;39.70;;;;;;5051421;28;20223;-56
2023/11/20 08:15:30;;;;;;;0.10;0.10;;;23.50;40.10;;;;;;5051385;28;20195;-54
2023/11/20 08:18:02;;;;;;;0.10;0.10;;;23.40;40.40;;;;;;5051613;28;20226;-51
2023/11/20 08:20:33;;;;;;;0.08;0.08;;;23.40;40.70;;;;;;5051229;28;20222;-48
2023/11/20 08:23:03;;;;;;;0.00;0.00;;;23.30;40.90;;;;;;5051547;28;20562;-54
2023/11/20 08:25:34;;;;;;;0.00;0.00;;;23.30;41.00;;;;;;5038859;28;20706;-45
2023/11/20 08:28:04;;;;;;;0.00;0.00;;;23.30;41.20;;;;;;5038996;28;20216;-43
2023/11/20 08:30:35;;;;;;;0.10;0.10;;;23.30;41.30;;;;;;5046685;28;20204;-44
2023/11/20 08:33:08;;;;;;;0.00;0.00;;;23.20;41.40;;;;;;5029254;28;20232;-52
2023/11/20 08:35:39;;;;;;;0.00;0.00;;;23.20;41.50;;;;;;5030639;28;20231;-53
2023/11/20 08:38:09;;;;;;;0.00;0.00;;;23.20;41.60;;;;;;5038456;28;20208;-56
2023/11/20 08:40:41;;;;;;;0.10;0.10;;;23.20;41.70;;;;;;5043815;28;20189;-43
2023/11/20 08:43:11;;;;;;;0.00;0.00;;;23.20;41.70;;;;;;5037590;28;20264;-54
2023/11/20 08:45:42;;;;;;;0.00;0.00;;;23.20;41.90;;;;;;5030489;28;20254;-55
2023/11/20 08:48:15;;;;;;;0.00;0.00;;;23.20;41.90;;;;;;5040379;28;20628;-48
2023/11/20 08:50:46;;;;;;;0.00;0.00;;;23.10;41.90;;;;;;5050101;28;20199;-43
2023/11/20 08:53:16;;;;;;;0.00;0.00;;;23.10;41.90;;;;;;5045993;28;20273;-46
2023/11/20 08:55:48;;;;;;;0.10;0.10;;;23.10;41.90;;;;;;5049540;28;20199;-42
2023/11/20 08:58:18;;;;;;;0.10;0.10;;;23.10;42.00;;;;;;5037197;28;20266;-45
2023/11/20 09:00:49;;;;;;;0.00;0.00;;;23.10;42.00;;;;;;5050639;28;20202;-46
2023/11/20 09:03:21;;;;;;;0.00;0.00;;;23.10;42.00;;;;;;5037450;28;20195;-45
2023/11/20 09:05:52;;;;;;;0.10;0.10;;;23.10;42.00;;;;;;5037375;28;20192;-46
2023/11/20 09:08:23;;;;;;;0.00;0.00;;;23.00;42.00;;;;;;5030556;28;20227;-46
2023/11/20 09:10:54;;;;;;;0.00;0.00;;;23.10;42.00;;;;;;5036410;28;20202;-52
2023/11/20 09:13:24;;;;;;;0.00;0.00;;;23.10;42.00;;;;;;5038388;28;20223;-53
2023/11/20 09:15:55;;;;;;;0.00;0.00;;;23.00;42.10;;;;;;5035940;28;20218;-54
2023/11/20 09:18:28;;;;;;;0.00;0.00;;;23.00;42.00;;;;;;5037891;28;20212;-54
2023/11/20 09:21:02;;;;;;;0.10;0.10;;;23.00;42.10;;;;;;5030835;28;20258;-50
2023/11/20 09:23:32;;;;;;;0.00;0.00;;;23.00;42.10;;;;;;5033048;28;20462;-51
2023/11/20 09:26:04;;;;;;;0.00;0.00;;;22.90;42.10;;;;;;5038407;28;20215;-52
2023/11/20 09:28:34;;;;;;;0.10;0.10;;;23.00;42.80;;;;;;5029837;28;20220;-50
2023/11/20 09:31:05;;;;;;;0.10;0.10;;;22.90;42.20;;;;;;5029434;28;20200;-53
2023/11/20 09:33:38;;;;;;;0.00;0.00;;;22.90;42.20;;;;;;5038231;28;20868;-49
2023/11/20 09:36:09;;;;;;;0.10;0.10;;;22.90;42.20;;;;;;5049790;28;20195;-49
2023/11/20 09:38:40;;;;;;;0.08;0.08;;;22.90;42.20;;;;;;5049404;28;20220;-51
2023/11/20 09:41:12;;;;;;;0.00;0.00;;;22.90;42.20;;;;;;5050500;28;20655;-49
2023/11/20 09:43:44;;;;;;;0.10;0.10;;;22.90;42.30;;;;;;5051727;28;20633;-52
2023/11/20 09:46:17;;;;;;;0.10;0.10;;;22.80;42.70;;;;;;5034718;28;20200;-51
2023/11/20 09:48:52;;;;;;;0.03;0.03;;;22.80;42.20;;;;;;5033865;28;20223;-53
2023/11/20 09:51:25;;;;;;;0.00;0.00;;;22.70;42.20;;;;;;5033463;28;20200;-53
2023/11/20 09:53:56;;;;;;;0.00;0.00;;;22.70;42.20;;;;;;5032925;28;20220;-47
2023/11/20 09:56:27;;;;;;;0.00;0.00;;;22.70;42.20;;;;;;5033485;28;20204;-52
2023/11/20 09:58:58;;;;;;;0.00;0.00;;;22.70;42.30;;;;;;5033269;28;20216;-53
2023/11/20 10:01:29;;;;;;;0.10;0.10;;;22.70;42.30;;;;;;5031980;28;20601;-56
2023/11/20 10:04:02;;;;;;;0.10;0.10;;;22.70;42.40;;;;;;5033710;28;20196;-58
2023/11/20 10:06:35;;;;;;;0.00;0.00;;;22.60;42.40;;;;;;5033606;28;20200;-55
2023/11/20 10:09:08;;;;;;;0.10;0.10;;;22.60;42.50;;;;;;5033403;28;20212;-56
2023/11/20 10:11:43;;;;;;;0.10;0.10;;;22.60;42.50;;;;;;5033828;28;20357;-56
2023/11/20 10:14:19;;;;;;;0.10;0.10;;;22.60;42.50;;;;;;5033722;28;20191;-56
2023/11/20 10:16:50;;;;;;;0.00;0.00;;;22.50;42.50;;;;;;5033019;28;20200;-57
2023/11/20 10:19:23;;;;;;;0.00;0.00;;;22.50;42.50;;;;;;5032555;28;20437;-55
2023/11/20 10:21:55;;;;;;;0.00;0.00;;;22.50;42.60;;;;;;5033879;28;20279;-54
2023/11/20 10:24:29;;;;;;;0.05;0.05;;;22.50;42.60;;;;;;5032723;28;20513;-54
2023/11/20 10:27:00;;;;;;;0.10;0.10;;;22.50;42.60;;;;;;5033289;28;20538;-58
2023/11/20 10:29:30;;;;;;;0.10;0.10;;;22.50;42.60;;;;;;5032895;28;20645;-56
2023/11/20 10:32:04;;;;;;;0.00;0.00;;;22.40;42.60;;;;;;5033558;28;20203;-57
2023/11/20 10:34:36;;;;;;;0.10;0.10;;;22.40;42.60;;;;;;5033185;28;20683;-53
2023/11/20 10:37:09;;;;;;;0.00;0.00;;;22.40;42.60;;;;;;5033020;28;20622;-56
2023/11/20 10:39:40;;;;;;;0.00;0.00;;;22.40;42.60;;;;;;5033182;28;20200;-55
2023/11/20 10:42:11;;;;;;;0.00;0.00;;;22.30;42.60;;;;;;5046680;28;20200;-54
2023/11/20 10:44:42;;;;;;;0.00;0.00;;;22.30;42.70;;;;;;5050522;28;20207;-53
2023/11/20 10:47:15;;;;;;;0.10;0.10;;;22.30;42.60;;;;;;5029931;28;20192;-57
2023/11/20 10:49:49;;;;;;;0.00;0.00;;;22.30;42.60;;;;;;5032597;28;20258;-56
2023/11/20 10:52:25;;;;;;;0.10;0.10;;;22.20;42.60;;;;;;5031868;28;20238;-49
2023/11/20 10:54:58;;;;;;;0.00;0.00;;;22.20;42.60;;;;;;5030765;28;20196;-57
2023/11/20 10:57:31;;;;;;;0.10;0.10;;;22.20;42.70;;;;;;5047073;28;20306;-52
2023/11/20 11:00:09;;;;;;;0.00;0.00;;;22.20;42.70;;;;;;5037440;28;20204;-58
2023/11/20 11:02:43;;;;;;;0.00;0.00;;;22.10;42.70;;;;;;5051611;28;20211;-57
2023/11/20 11:05:16;;;;;;;0.00;0.00;;;22.10;42.70;;;;;;5033291;28;20204;-57
2023/11/20 11:07:47;;;;;;;0.03;0.03;;;22.10;42.80;;;;;;5032134;28;20216;-50
2023/11/20 11:10:20;;;;;;;0.00;0.00;;;22.10;42.80;;;;;;5031985;28;20195;-50
2023/11/20 11:12:51;;;;;;;0.10;0.10;;;22.10;42.80;;;;;;5051962;28;20223;-58
2023/11/20 11:15:23;;;;;;;0.00;0.00;;;22.00;42.70;;;;;;5051161;28;20222;-55
2023/11/20 11:18:00;;;;;;;0.10;0.10;;;22.00;42.70;;;;;;5049307;28;20222;-57
2023/11/20 11:20:38;;;;;;;0.05;0.05;;;22.00;42.70;;;;;;5032077;28;20196;-52
2023/11/20 11:23:10;;;;;;;0.00;0.00;;;21.90;42.70;;;;;;5032364;28;20232;-57
2023/11/20 11:25:48;;;;;;;0.00;0.00;;;21.90;42.80;;;;;;5032206;28;20219;-54
2023/11/20 11:28:21;;;;;;;0.10;0.10;;;21.90;42.70;;;;;;5032748;28;20215;-57
2023/11/20 11:30:53;;;;;;;0.00;0.00;;;21.90;42.80;;;;;;5032815;28;20196;-53
2023/11/20 11:33:45;;;;;;;0.10;0.10;;;21.80;42.80;;;;;;5032627;28;20234;-51
2023/11/20 11:36:28;;;;;;;0.10;0.10;;;21.80;42.80;;;;;;5032981;28;20192;-52
2023/11/20 11:39:23;;;;;;;0.10;0.10;;;21.80;42.80;;;;;;5032253;28;20216;-54
2023/11/20 11:42:03;;;;;;;0.00;0.00;;;21.80;42.80;;;;;;5026535;28;20196;-52
2023/11/20 11:44:59;;;;;;;0.10;0.10;;;21.70;42.80;;;;;;5042399;28;20188;-51
2023/11/20 11:47:31;;;;;;;0.10;0.10;;;21.70;42.80;;;;;;5031409;28;20679;-51
2023/11/20 11:50:03;;;;;;;0.08;0.08;;;21.70;42.90;;;;;;5031832;28;20307;-53
2023/11/20 11:52:38;;;;;;;0.00;0.00;;;21.60;42.80;;;;;;5031990;28;20184;-46
2023/11/20 11:55:24;;;;;;;0.10;0.10;;;21.60;42.90;;;;;;5031704;28;20184;-57
2023/11/20 11:57:59;;;;;;;0.08;0.08;;;21.60;43.50;;;;;;5028799;28;20218;-58
2023/11/20 12:00:30;;;;;;;0.00;0.00;;;21.60;42.90;;;;;;5031558;28;20227;-54
2023/11/20 12:03:08;;;;;;;0.00;0.00;;;21.50;42.90;;;;;;5031659;28;20559;-57
2023/11/20 12:06:19;;;;;;;0.10;0.10;;;21.50;42.90;;;;;;5029733;28;20636;-54
2023/11/20 12:08:55;;;;;;;0.10;0.10;;;21.50;42.90;;;;;;5030951;28;20294;-52
2023/11/20 12:11:53;;;;;;;0.10;0.10;;;21.50;42.90;;;;;;5031477;28;20199;-55
2023/11/20 12:14:24;;;;;;;0.03;0.03;;;21.40;42.90;;;;;;5027574;28;20631;-57
2023/11/20 12:17:03;;;;;;;0.10;0.10;;;21.40;42.90;;;;;;5029078;28;20196;-57
2023/11/20 12:19:36;;;;;;;0.10;0.10;;;21.40;42.90;;;;;;5029016;28;20223;-57
2023/11/20 12:22:09;;;;;;;0.10;0.10;;;21.30;42.90;;;;;;5031291;28;20200;-49
2023/11/20 12:24:41;;;;;;;0.00;0.00;;;21.30;43.60;;;;;;5029443;28;20188;-56
2023/11/20 12:27:12;;;;;;;0.10;0.10;;;21.30;43.00;;;;;;5032007;28;20196;-56
2023/11/20 12:29:43;;;;;;;0.00;0.00;;;21.30;43.00;;;;;;5031470;28;20555;-56
2023/11/20 12:32:14;;;;;;;0.10;0.10;;;21.30;43.00;;;;;;5031044;28;20196;-48
2023/11/20 12:34:44;;;;;;;0.10;0.10;;;21.20;43.00;;;;;;5031073;28;20687;-54
2023/11/20 12:37:15;;;;;;;0.10;0.10;;;21.20;43.00;;;;;;5031484;28;20203;-54
2023/11/20 12:39:48;;;;;;;0.00;0.00;;;21.20;43.10;;;;;;5031424;28;20207;-55
2023/11/20 12:42:21;;;;;;;0.00;0.00;;;21.20;43.00;;;;;;5042829;28;20198;-57
2023/11/20 12:44:53;;;;;;;0.00;0.00;;;21.20;43.00;;;;;;5011734;28;20208;-57
2023/11/20 12:47:23;;;;;;;0.00;0.00;;;21.10;43.00;;;;;;5012084;28;20192;-54
2023/11/20 12:49:57;;;;;;;0.00;0.00;;;21.10;43.00;;;;;;5011718;28;20613;-55
2023/11/20 12:52:27;;;;;;;0.10;0.10;;;21.10;43.00;;;;;;5011444;28;20616;-56
2023/11/20 12:55:00;;;;;;;0.00;0.00;;;21.10;43.00;;;;;;5011004;28;21060;-56
2023/11/20 12:57:32;;;;;;;0.10;0.10;;;21.00;43.00;;;;;;5016380;28;20212;-57
2023/11/20 13:00:04;;;;;;;0.10;0.10;;;21.00;43.00;;;;;;5031307;28;20236;-51
2023/11/20 13:02:35;;;;;;;0.00;0.00;;;21.00;43.00;;;;;;5030833;28;20199;-43
2023/11/20 13:05:12;;;;;;;0.05;0.05;;;21.00;43.00;;;;;;5030795;28;20204;-56
2023/11/20 13:07:44;;;;;;;0.00;0.00;;;20.90;43.00;;;;;;5031115;28;20222;-50
2023/11/20 13:10:17;;;;;;;0.00;0.00;;;20.90;43.00;;;;;;5031133;28;20231;-57
2023/11/20 13:12:47;;;;;;;0.10;0.10;;;20.90;43.00;;;;;;5050814;28;20210;-54
2023/11/20 13:15:23;;;;;;;0.00;0.00;;;20.90;43.00;;;;;;5051235;28;20730;-54